sensor_id;sensor_type;location;lat;lon;timestamp;P1;durP1;ratioP1;P2;durP2;ratioP2
29340;SDS011;16337;59.536;13.468;2023-06-22T00:01:59;0.68;;;0.68;;
29340;SDS011;16337;59.536;13.468;2023-06-22T00:04:25;1.13;;;1.02;;
29340;SDS011;16337;59.536;13.468;2023-06-22T00:07:01;0.95;;;0.68;;
29340;SDS011;16337;59.536;13.468;2023-06-22T00:09:26;0.60;;;0.60;;
29340;SDS011;16337;59.536;13.468;2023-06-22T00:11:52;4.28;;;1.05;;
29340;SDS011;16337;59.536;13.468;2023-06-22T00:14:18;0.85;;;0.85;;
29340;SDS011;16337;59.536;13.468;2023-06-22T00:16:43;0.90;;;0.85;;
29340;SDS011;16337;59.536;13.468;2023-06-22T00:19:13;1.13;;;1.02;;
29340;SDS011;16337;59.536;13.468;2023-06-22T00:21:40;0.93;;;0.93;;
29340;SDS011;16337;59.536;13.468;2023-06-22T00:24:07;0.98;;;0.63;;
29340;SDS011;16337;59.536;13.468;2023-06-22T00:26:33;0.88;;;0.88;;
29340;SDS011;16337;59.536;13.468;2023-06-22T00:28:59;1.27;;;0.93;;
29340;SDS011;16337;59.536;13.468;2023-06-22T00:31:24;1.13;;;1.02;;
29340;SDS011;16337;59.536;13.468;2023-06-22T00:33:50;0.80;;;0.80;;
29340;SDS011;16337;59.536;13.468;2023-06-22T00:36:16;1.98;;;1.63;;
29340;SDS011;16337;59.536;13.468;2023-06-22T00:38:43;1.90;;;1.52;;
29340;SDS011;16337;59.536;13.468;2023-06-22T00:41:08;4.90;;;1.38;;
29340;SDS011;16337;59.536;13.468;2023-06-22T00:43:34;0.73;;;0.73;;
29340;SDS011;16337;59.536;13.468;2023-06-22T00:46:00;2.58;;;1.80;;
29340;SDS011;16337;59.536;13.468;2023-06-22T00:48:26;2.33;;;1.25;;
29340;SDS011;16337;59.536;13.468;2023-06-22T00:50:52;0.82;;;0.63;;
29340;SDS011;16337;59.536;13.468;2023-06-22T00:53:20;0.40;;;0.40;;
29340;SDS011;16337;59.536;13.468;2023-06-22T00:55:46;1.23;;;1.13;;
29340;SDS011;16337;59.536;13.468;2023-06-22T00:58:12;0.50;;;0.50;;
29340;SDS011;16337;59.536;13.468;2023-06-22T01:00:39;0.50;;;0.50;;
29340;SDS011;16337;59.536;13.468;2023-06-22T01:03:06;0.98;;;0.98;;
29340;SDS011;16337;59.536;13.468;2023-06-22T01:05:38;1.02;;;0.93;;
29340;SDS011;16337;59.536;13.468;2023-06-22T01:11:10;0.32;;;0.32;;
29340;SDS011;16337;59.536;13.468;2023-06-22T01:16:29;1.05;;;0.93;;
29340;SDS011;16337;59.536;13.468;2023-06-22T01:18:57;0.63;;;0.63;;
29340;SDS011;16337;59.536;13.468;2023-06-22T01:21:26;1.55;;;1.00;;
29340;SDS011;16337;59.536;13.468;2023-06-22T01:24:39;1.55;;;1.17;;
29340;SDS011;16337;59.536;13.468;2023-06-22T01:27:00;1.00;;;0.85;;
29340;SDS011;16337;59.536;13.468;2023-06-22T01:29:36;0.75;;;0.70;;
29340;SDS011;16337;59.536;13.468;2023-06-22T01:32:03;0.52;;;0.52;;
29340;SDS011;16337;59.536;13.468;2023-06-22T01:34:31;1.48;;;0.93;;
29340;SDS011;16337;59.536;13.468;2023-06-22T01:36:58;0.80;;;0.60;;
29340;SDS011;16337;59.536;13.468;2023-06-22T01:39:26;0.50;;;0.50;;
29340;SDS011;16337;59.536;13.468;2023-06-22T01:41:53;1.38;;;0.88;;
29340;SDS011;16337;59.536;13.468;2023-06-22T01:44:19;0.55;;;0.55;;
29340;SDS011;16337;59.536;13.468;2023-06-22T01:46:46;2.28;;;1.52;;
29340;SDS011;16337;59.536;13.468;2023-06-22T01:49:14;0.70;;;0.70;;
29340;SDS011;16337;59.536;13.468;2023-06-22T01:51:40;0.77;;;0.60;;
29340;SDS011;16337;59.536;13.468;2023-06-22T01:54:06;0.95;;;0.90;;
29340;SDS011;16337;59.536;13.468;2023-06-22T01:56:33;0.60;;;0.60;;
29340;SDS011;16337;59.536;13.468;2023-06-22T02:01:42;1.85;;;1.00;;
29340;SDS011;16337;59.536;13.468;2023-06-22T02:04:13;1.42;;;1.10;;
29340;SDS011;16337;59.536;13.468;2023-06-22T02:06:51;0.55;;;0.55;;
29340;SDS011;16337;59.536;13.468;2023-06-22T02:09:21;10.02;;;0.82;;
29340;SDS011;16337;59.536;13.468;2023-06-22T02:11:49;0.75;;;0.75;;
29340;SDS011;16337;59.536;13.468;2023-06-22T02:14:23;4.00;;;1.55;;
29340;SDS011;16337;59.536;13.468;2023-06-22T02:16:53;0.85;;;0.85;;
29340;SDS011;16337;59.536;13.468;2023-06-22T02:19:24;0.70;;;0.70;;
29340;SDS011;16337;59.536;13.468;2023-06-22T02:21:50;1.70;;;0.93;;
29340;SDS011;16337;59.536;13.468;2023-06-22T02:24:16;1.50;;;1.40;;
29340;SDS011;16337;59.536;13.468;2023-06-22T02:26:45;1.20;;;1.10;;
29340;SDS011;16337;59.536;13.468;2023-06-22T02:29:23;4.18;;;1.85;;
29340;SDS011;16337;59.536;13.468;2023-06-22T02:31:52;54.38;;;1.67;;
29340;SDS011;16337;59.536;13.468;2023-06-22T02:34:19;2.13;;;1.00;;
29340;SDS011;16337;59.536;13.468;2023-06-22T02:36:50;1.20;;;1.10;;
29340;SDS011;16337;59.536;13.468;2023-06-22T02:39:23;0.88;;;0.88;;
29340;SDS011;16337;59.536;13.468;2023-06-22T02:41:52;0.75;;;0.75;;
29340;SDS011;16337;59.536;13.468;2023-06-22T02:44:19;0.95;;;0.65;;
29340;SDS011;16337;59.536;13.468;2023-06-22T02:46:48;3.05;;;0.68;;
29340;SDS011;16337;59.536;13.468;2023-06-22T02:49:17;3.58;;;1.27;;
29340;SDS011;16337;59.536;13.468;2023-06-22T02:51:46;1.17;;;1.10;;
29340;SDS011;16337;59.536;13.468;2023-06-22T02:54:13;0.52;;;0.52;;
29340;SDS011;16337;59.536;13.468;2023-06-22T02:56:39;1.30;;;0.75;;
29340;SDS011;16337;59.536;13.468;2023-06-22T02:59:08;1.23;;;0.80;;
29340;SDS011;16337;59.536;13.468;2023-06-22T03:01:35;0.65;;;0.65;;
29340;SDS011;16337;59.536;13.468;2023-06-22T03:06:51;0.38;;;0.38;;
29340;SDS011;16337;59.536;13.468;2023-06-22T03:09:20;0.88;;;0.75;;
29340;SDS011;16337;59.536;13.468;2023-06-22T03:11:45;0.80;;;0.80;;
29340;SDS011;16337;59.536;13.468;2023-06-22T03:14:11;0.82;;;0.60;;
29340;SDS011;16337;59.536;13.468;2023-06-22T03:16:37;2.15;;;1.35;;
29340;SDS011;16337;59.536;13.468;2023-06-22T03:19:03;5.55;;;1.70;;
29340;SDS011;16337;59.536;13.468;2023-06-22T03:21:29;0.73;;;0.70;;
29340;SDS011;16337;59.536;13.468;2023-06-22T03:23:55;1.35;;;1.15;;
29340;SDS011;16337;59.536;13.468;2023-06-22T03:26:45;1.15;;;1.05;;
29340;SDS011;16337;59.536;13.468;2023-06-22T03:29:23;1.52;;;1.17;;
29340;SDS011;16337;59.536;13.468;2023-06-22T03:31:52;0.80;;;0.80;;
29340;SDS011;16337;59.536;13.468;2023-06-22T03:34:20;0.45;;;0.45;;
29340;SDS011;16337;59.536;13.468;2023-06-22T03:36:46;0.70;;;0.70;;
29340;SDS011;16337;59.536;13.468;2023-06-22T03:39:12;0.98;;;0.90;;
29340;SDS011;16337;59.536;13.468;2023-06-22T03:41:38;5.05;;;1.48;;
29340;SDS011;16337;59.536;13.468;2023-06-22T03:44:04;1.85;;;0.75;;
29340;SDS011;16337;59.536;13.468;2023-06-22T03:46:30;0.85;;;0.85;;
29340;SDS011;16337;59.536;13.468;2023-06-22T03:48:55;0.50;;;0.50;;
29340;SDS011;16337;59.536;13.468;2023-06-22T03:51:21;0.43;;;0.43;;
29340;SDS011;16337;59.536;13.468;2023-06-22T03:53:47;0.57;;;0.52;;
29340;SDS011;16337;59.536;13.468;2023-06-22T03:56:13;0.60;;;0.60;;
29340;SDS011;16337;59.536;13.468;2023-06-22T03:58:45;0.85;;;0.85;;
29340;SDS011;16337;59.536;13.468;2023-06-22T04:01:10;0.65;;;0.65;;
29340;SDS011;16337;59.536;13.468;2023-06-22T04:03:37;0.50;;;0.50;;
29340;SDS011;16337;59.536;13.468;2023-06-22T04:06:03;0.80;;;0.80;;
29340;SDS011;16337;59.536;13.468;2023-06-22T04:08:29;0.40;;;0.40;;
29340;SDS011;16337;59.536;13.468;2023-06-22T04:10:55;0.35;;;0.35;;
29340;SDS011;16337;59.536;13.468;2023-06-22T04:13:21;2.50;;;1.35;;
29340;SDS011;16337;59.536;13.468;2023-06-22T04:15:47;0.32;;;0.32;;
29340;SDS011;16337;59.536;13.468;2023-06-22T04:18:13;0.95;;;0.95;;
29340;SDS011;16337;59.536;13.468;2023-06-22T04:20:41;0.55;;;0.55;;
29340;SDS011;16337;59.536;13.468;2023-06-22T04:23:07;0.82;;;0.70;;
29340;SDS011;16337;59.536;13.468;2023-06-22T04:25:33;0.60;;;0.60;;
29340;SDS011;16337;59.536;13.468;2023-06-22T04:27:59;0.40;;;0.40;;
29340;SDS011;16337;59.536;13.468;2023-06-22T04:30:37;0.68;;;0.68;;
29340;SDS011;16337;59.536;13.468;2023-06-22T04:33:14;0.60;;;0.55;;
29340;SDS011;16337;59.536;13.468;2023-06-22T04:35:41;0.77;;;0.77;;
29340;SDS011;16337;59.536;13.468;2023-06-22T04:38:09;0.77;;;0.77;;
29340;SDS011;16337;59.536;13.468;2023-06-22T04:40:38;0.45;;;0.45;;
29340;SDS011;16337;59.536;13.468;2023-06-22T04:43:04;1.85;;;0.93;;
29340;SDS011;16337;59.536;13.468;2023-06-22T04:45:31;1.15;;;0.80;;
29340;SDS011;16337;59.536;13.468;2023-06-22T04:47:57;1.45;;;0.90;;
29340;SDS011;16337;59.536;13.468;2023-06-22T04:50:23;0.75;;;0.75;;
29340;SDS011;16337;59.536;13.468;2023-06-22T04:52:50;0.38;;;0.38;;
29340;SDS011;16337;59.536;13.468;2023-06-22T04:55:15;0.52;;;0.52;;
29340;SDS011;16337;59.536;13.468;2023-06-22T04:57:46;0.57;;;0.57;;
29340;SDS011;16337;59.536;13.468;2023-06-22T05:00:16;0.40;;;0.40;;
29340;SDS011;16337;59.536;13.468;2023-06-22T05:02:44;0.63;;;0.57;;
29340;SDS011;16337;59.536;13.468;2023-06-22T05:05:11;0.55;;;0.55;;
29340;SDS011;16337;59.536;13.468;2023-06-22T05:07:44;1.13;;;0.63;;
29340;SDS011;16337;59.536;13.468;2023-06-22T05:10:14;0.43;;;0.43;;
29340;SDS011;16337;59.536;13.468;2023-06-22T05:12:40;1.40;;;0.80;;
29340;SDS011;16337;59.536;13.468;2023-06-22T05:15:09;1.17;;;1.08;;
29340;SDS011;16337;59.536;13.468;2023-06-22T05:17:36;1.13;;;0.82;;
29340;SDS011;16337;59.536;13.468;2023-06-22T05:20:08;9.25;;;0.68;;
29340;SDS011;16337;59.536;13.468;2023-06-22T05:22:34;0.80;;;0.80;;
29340;SDS011;16337;59.536;13.468;2023-06-22T05:25:00;1.20;;;0.75;;
29340;SDS011;16337;59.536;13.468;2023-06-22T05:27:26;0.40;;;0.40;;
29340;SDS011;16337;59.536;13.468;2023-06-22T05:29:51;0.73;;;0.68;;
29340;SDS011;16337;59.536;13.468;2023-06-22T05:32:17;0.63;;;0.63;;
29340;SDS011;16337;59.536;13.468;2023-06-22T05:34:43;0.45;;;0.45;;
29340;SDS011;16337;59.536;13.468;2023-06-22T05:37:09;0.50;;;0.50;;
29340;SDS011;16337;59.536;13.468;2023-06-22T05:39:35;0.52;;;0.52;;
29340;SDS011;16337;59.536;13.468;2023-06-22T05:42:05;0.50;;;0.50;;
29340;SDS011;16337;59.536;13.468;2023-06-22T05:44:31;0.32;;;0.32;;
29340;SDS011;16337;59.536;13.468;2023-06-22T05:46:58;0.32;;;0.32;;
29340;SDS011;16337;59.536;13.468;2023-06-22T05:49:24;1.30;;;0.95;;
29340;SDS011;16337;59.536;13.468;2023-06-22T05:51:54;0.30;;;0.30;;
29340;SDS011;16337;59.536;13.468;2023-06-22T05:54:20;0.20;;;0.20;;
29340;SDS011;16337;59.536;13.468;2023-06-22T05:56:46;0.70;;;0.70;;
29340;SDS011;16337;59.536;13.468;2023-06-22T05:59:12;0.50;;;0.50;;
29340;SDS011;16337;59.536;13.468;2023-06-22T06:01:37;0.30;;;0.30;;
29340;SDS011;16337;59.536;13.468;2023-06-22T06:04:04;1.55;;;0.50;;
29340;SDS011;16337;59.536;13.468;2023-06-22T06:06:33;0.30;;;0.30;;
29340;SDS011;16337;59.536;13.468;2023-06-22T06:09:00;0.50;;;0.50;;
29340;SDS011;16337;59.536;13.468;2023-06-22T06:11:26;1.02;;;0.73;;
29340;SDS011;16337;59.536;13.468;2023-06-22T06:13:52;0.40;;;0.40;;
29340;SDS011;16337;59.536;13.468;2023-06-22T06:16:17;0.80;;;0.65;;
29340;SDS011;16337;59.536;13.468;2023-06-22T06:18:43;0.20;;;0.20;;
29340;SDS011;16337;59.536;13.468;2023-06-22T06:21:09;0.70;;;0.70;;
29340;SDS011;16337;59.536;13.468;2023-06-22T06:23:34;0.40;;;0.40;;
29340;SDS011;16337;59.536;13.468;2023-06-22T06:26:00;0.38;;;0.38;;
29340;SDS011;16337;59.536;13.468;2023-06-22T06:28:26;0.38;;;0.38;;
29340;SDS011;16337;59.536;13.468;2023-06-22T06:30:52;0.38;;;0.38;;
29340;SDS011;16337;59.536;13.468;2023-06-22T06:33:18;1.00;;;0.52;;
29340;SDS011;16337;59.536;13.468;2023-06-22T06:35:46;1.88;;;1.17;;
29340;SDS011;16337;59.536;13.468;2023-06-22T06:38:11;0.52;;;0.47;;
29340;SDS011;16337;59.536;13.468;2023-06-22T06:40:37;0.45;;;0.45;;
29340;SDS011;16337;59.536;13.468;2023-06-22T06:43:03;0.40;;;0.40;;
29340;SDS011;16337;59.536;13.468;2023-06-22T06:45:29;0.30;;;0.30;;
29340;SDS011;16337;59.536;13.468;2023-06-22T06:47:58;0.55;;;0.55;;
29340;SDS011;16337;59.536;13.468;2023-06-22T06:50:23;0.20;;;0.20;;
29340;SDS011;16337;59.536;13.468;2023-06-22T06:52:49;0.22;;;0.22;;
29340;SDS011;16337;59.536;13.468;2023-06-22T06:55:15;0.60;;;0.60;;
29340;SDS011;16337;59.536;13.468;2023-06-22T06:57:41;1.17;;;0.80;;
29340;SDS011;16337;59.536;13.468;2023-06-22T07:00:08;0.30;;;0.30;;
29340;SDS011;16337;59.536;13.468;2023-06-22T07:02:39;0.65;;;0.60;;
29340;SDS011;16337;59.536;13.468;2023-06-22T07:05:06;0.47;;;0.47;;
29340;SDS011;16337;59.536;13.468;2023-06-22T07:07:32;0.40;;;0.40;;
29340;SDS011;16337;59.536;13.468;2023-06-22T07:09:59;1.75;;;0.93;;
29340;SDS011;16337;59.536;13.468;2023-06-22T07:12:24;0.60;;;0.60;;
29340;SDS011;16337;59.536;13.468;2023-06-22T07:14:51;0.50;;;0.50;;
29340;SDS011;16337;59.536;13.468;2023-06-22T07:17:18;0.80;;;0.80;;
29340;SDS011;16337;59.536;13.468;2023-06-22T07:19:43;0.50;;;0.50;;
29340;SDS011;16337;59.536;13.468;2023-06-22T07:22:21;0.28;;;0.28;;
29340;SDS011;16337;59.536;13.468;2023-06-22T07:24:47;0.20;;;0.20;;
29340;SDS011;16337;59.536;13.468;2023-06-22T07:27:14;0.47;;;0.47;;
29340;SDS011;16337;59.536;13.468;2023-06-22T07:29:43;0.73;;;0.50;;
29340;SDS011;16337;59.536;13.468;2023-06-22T07:32:09;0.22;;;0.22;;
29340;SDS011;16337;59.536;13.468;2023-06-22T07:34:34;0.30;;;0.30;;
29340;SDS011;16337;59.536;13.468;2023-06-22T07:37:00;0.20;;;0.20;;
29340;SDS011;16337;59.536;13.468;2023-06-22T07:39:26;0.52;;;0.40;;
29340;SDS011;16337;59.536;13.468;2023-06-22T07:41:53;0.30;;;0.30;;
29340;SDS011;16337;59.536;13.468;2023-06-22T07:44:19;0.40;;;0.40;;
29340;SDS011;16337;59.536;13.468;2023-06-22T07:46:45;0.57;;;0.57;;
29340;SDS011;16337;59.536;13.468;2023-06-22T07:49:11;0.40;;;0.40;;
29340;SDS011;16337;59.536;13.468;2023-06-22T07:51:37;0.22;;;0.22;;
29340;SDS011;16337;59.536;13.468;2023-06-22T07:54:03;1.13;;;1.00;;
29340;SDS011;16337;59.536;13.468;2023-06-22T07:56:29;0.57;;;0.50;;
29340;SDS011;16337;59.536;13.468;2023-06-22T07:58:54;0.20;;;0.20;;
29340;SDS011;16337;59.536;13.468;2023-06-22T08:01:23;0.47;;;0.43;;
29340;SDS011;16337;59.536;13.468;2023-06-22T08:03:51;0.25;;;0.25;;
29340;SDS011;16337;59.536;13.468;2023-06-22T08:06:19;0.30;;;0.30;;
29340;SDS011;16337;59.536;13.468;2023-06-22T08:08:45;0.52;;;0.52;;
29340;SDS011;16337;59.536;13.468;2023-06-22T08:11:13;0.20;;;0.20;;
29340;SDS011;16337;59.536;13.468;2023-06-22T08:13:39;0.50;;;0.50;;
29340;SDS011;16337;59.536;13.468;2023-06-22T08:16:04;0.43;;;0.40;;
29340;SDS011;16337;59.536;13.468;2023-06-22T08:18:30;0.43;;;0.43;;
29340;SDS011;16337;59.536;13.468;2023-06-22T08:20:56;0.80;;;0.40;;
29340;SDS011;16337;59.536;13.468;2023-06-22T08:23:22;0.38;;;0.38;;
29340;SDS011;16337;59.536;13.468;2023-06-22T08:25:48;0.35;;;0.35;;
29340;SDS011;16337;59.536;13.468;2023-06-22T08:28:15;1.00;;;0.70;;
29340;SDS011;16337;59.536;13.468;2023-06-22T08:30:40;0.13;;;0.13;;
29340;SDS011;16337;59.536;13.468;2023-06-22T08:33:06;0.35;;;0.35;;
29340;SDS011;16337;59.536;13.468;2023-06-22T08:35:32;0.52;;;0.28;;
29340;SDS011;16337;59.536;13.468;2023-06-22T08:37:58;0.40;;;0.40;;
29340;SDS011;16337;59.536;13.468;2023-06-22T08:40:33;0.30;;;0.30;;
29340;SDS011;16337;59.536;13.468;2023-06-22T08:42:59;0.25;;;0.25;;
29340;SDS011;16337;59.536;13.468;2023-06-22T08:45:25;0.20;;;0.20;;
29340;SDS011;16337;59.536;13.468;2023-06-22T08:47:51;0.40;;;0.40;;
29340;SDS011;16337;59.536;13.468;2023-06-22T08:50:16;0.35;;;0.32;;
29340;SDS011;16337;59.536;13.468;2023-06-22T08:52:42;0.43;;;0.35;;
29340;SDS011;16337;59.536;13.468;2023-06-22T08:55:08;0.40;;;0.40;;
29340;SDS011;16337;59.536;13.468;2023-06-22T08:57:34;1.85;;;0.40;;
29340;SDS011;16337;59.536;13.468;2023-06-22T09:00:03;0.15;;;0.15;;
29340;SDS011;16337;59.536;13.468;2023-06-22T09:02:30;1.85;;;0.57;;
29340;SDS011;16337;59.536;13.468;2023-06-22T09:04:56;0.77;;;0.50;;
29340;SDS011;16337;59.536;13.468;2023-06-22T09:07:23;0.20;;;0.20;;
29340;SDS011;16337;59.536;13.468;2023-06-22T09:09:50;0.30;;;0.30;;
29340;SDS011;16337;59.536;13.468;2023-06-22T09:12:16;0.82;;;0.25;;
29340;SDS011;16337;59.536;13.468;2023-06-22T09:14:42;0.50;;;0.50;;
29340;SDS011;16337;59.536;13.468;2023-06-22T09:17:08;0.10;;;0.10;;
29340;SDS011;16337;59.536;13.468;2023-06-22T09:19:33;0.43;;;0.43;;
29340;SDS011;16337;59.536;13.468;2023-06-22T09:21:59;18.60;;;0.70;;
29340;SDS011;16337;59.536;13.468;2023-06-22T09:24:25;0.63;;;0.20;;
29340;SDS011;16337;59.536;13.468;2023-06-22T09:26:51;0.25;;;0.25;;
29340;SDS011;16337;59.536;13.468;2023-06-22T09:29:17;1.85;;;0.45;;
29340;SDS011;16337;59.536;13.468;2023-06-22T09:31:43;0.43;;;0.43;;
29340;SDS011;16337;59.536;13.468;2023-06-22T09:34:09;0.30;;;0.30;;
29340;SDS011;16337;59.536;13.468;2023-06-22T09:36:35;0.45;;;0.30;;
29340;SDS011;16337;59.536;13.468;2023-06-22T09:39:01;0.40;;;0.40;;
29340;SDS011;16337;59.536;13.468;2023-06-22T09:41:31;0.40;;;0.40;;
29340;SDS011;16337;59.536;13.468;2023-06-22T09:43:56;0.45;;;0.45;;
29340;SDS011;16337;59.536;13.468;2023-06-22T09:46:22;0.30;;;0.30;;
29340;SDS011;16337;59.536;13.468;2023-06-22T09:48:50;0.20;;;0.20;;
29340;SDS011;16337;59.536;13.468;2023-06-22T09:51:16;0.30;;;0.30;;
29340;SDS011;16337;59.536;13.468;2023-06-22T09:53:44;2.05;;;0.75;;
29340;SDS011;16337;59.536;13.468;2023-06-22T09:56:10;0.40;;;0.40;;
29340;SDS011;16337;59.536;13.468;2023-06-22T09:58:42;0.68;;;0.43;;
29340;SDS011;16337;59.536;13.468;2023-06-22T10:01:09;0.20;;;0.20;;
29340;SDS011;16337;59.536;13.468;2023-06-22T10:03:36;0.20;;;0.20;;
29340;SDS011;16337;59.536;13.468;2023-06-22T10:06:02;0.40;;;0.40;;
29340;SDS011;16337;59.536;13.468;2023-06-22T10:08:28;0.90;;;0.47;;
29340;SDS011;16337;59.536;13.468;2023-06-22T10:10:54;0.25;;;0.17;;
29340;SDS011;16337;59.536;13.468;2023-06-22T10:13:20;0.30;;;0.30;;
29340;SDS011;16337;59.536;13.468;2023-06-22T10:15:45;0.82;;;0.50;;
29340;SDS011;16337;59.536;13.468;2023-06-22T10:18:16;0.15;;;0.15;;
29340;SDS011;16337;59.536;13.468;2023-06-22T10:20:42;0.30;;;0.30;;
29340;SDS011;16337;59.536;13.468;2023-06-22T10:23:08;0.20;;;0.20;;
29340;SDS011;16337;59.536;13.468;2023-06-22T10:25:34;0.32;;;0.32;;
29340;SDS011;16337;59.536;13.468;2023-06-22T10:27:59;0.20;;;0.20;;
29340;SDS011;16337;59.536;13.468;2023-06-22T10:30:25;0.22;;;0.22;;
29340;SDS011;16337;59.536;13.468;2023-06-22T10:32:51;0.20;;;0.20;;
29340;SDS011;16337;59.536;13.468;2023-06-22T10:35:16;0.20;;;0.20;;
29340;SDS011;16337;59.536;13.468;2023-06-22T10:37:43;1.95;;;0.45;;
29340;SDS011;16337;59.536;13.468;2023-06-22T10:40:10;0.30;;;0.30;;
29340;SDS011;16337;59.536;13.468;2023-06-22T10:42:38;0.22;;;0.20;;
29340;SDS011;16337;59.536;13.468;2023-06-22T10:45:04;0.45;;;0.35;;
29340;SDS011;16337;59.536;13.468;2023-06-22T10:47:30;0.10;;;0.10;;
29340;SDS011;16337;59.536;13.468;2023-06-22T10:49:55;0.25;;;0.25;;
29340;SDS011;16337;59.536;13.468;2023-06-22T10:52:21;0.65;;;0.28;;
29340;SDS011;16337;59.536;13.468;2023-06-22T10:54:47;0.38;;;0.35;;
29340;SDS011;16337;59.536;13.468;2023-06-22T10:57:13;0.40;;;0.35;;
29340;SDS011;16337;59.536;13.468;2023-06-22T10:59:39;0.20;;;0.20;;
29340;SDS011;16337;59.536;13.468;2023-06-22T11:02:05;0.28;;;0.25;;
29340;SDS011;16337;59.536;13.468;2023-06-22T11:04:30;0.38;;;0.30;;
29340;SDS011;16337;59.536;13.468;2023-06-22T11:06:56;0.10;;;0.10;;
29340;SDS011;16337;59.536;13.468;2023-06-22T11:09:22;0.08;;;0.08;;
29340;SDS011;16337;59.536;13.468;2023-06-22T11:11:48;0.20;;;0.20;;
29340;SDS011;16337;59.536;13.468;2023-06-22T11:14:22;0.90;;;0.35;;
29340;SDS011;16337;59.536;13.468;2023-06-22T11:16:48;0.10;;;0.10;;
29340;SDS011;16337;59.536;13.468;2023-06-22T11:19:13;0.63;;;0.20;;
29340;SDS011;16337;59.536;13.468;2023-06-22T11:21:39;0.15;;;0.15;;
29340;SDS011;16337;59.536;13.468;2023-06-22T11:24:05;0.10;;;0.10;;
29340;SDS011;16337;59.536;13.468;2023-06-22T11:26:31;0.08;;;0.08;;
29340;SDS011;16337;59.536;13.468;2023-06-22T11:28:57;0.63;;;0.63;;
29340;SDS011;16337;59.536;13.468;2023-06-22T11:31:23;0.15;;;0.15;;
29340;SDS011;16337;59.536;13.468;2023-06-22T11:33:49;3.30;;;0.43;;
29340;SDS011;16337;59.536;13.468;2023-06-22T11:36:15;0.10;;;0.10;;
29340;SDS011;16337;59.536;13.468;2023-06-22T11:38:41;0.13;;;0.13;;
29340;SDS011;16337;59.536;13.468;2023-06-22T11:41:08;0.10;;;0.10;;
29340;SDS011;16337;59.536;13.468;2023-06-22T11:43:34;0.50;;;0.50;;
29340;SDS011;16337;59.536;13.468;2023-06-22T11:46:02;0.28;;;0.28;;
29340;SDS011;16337;59.536;13.468;2023-06-22T11:48:29;0.60;;;0.35;;
29340;SDS011;16337;59.536;13.468;2023-06-22T11:50:55;0.10;;;0.10;;
29340;SDS011;16337;59.536;13.468;2023-06-22T11:53:21;0.20;;;0.20;;
29340;SDS011;16337;59.536;13.468;2023-06-22T11:55:51;0.20;;;0.20;;
29340;SDS011;16337;59.536;13.468;2023-06-22T11:58:17;0.10;;;0.10;;
29340;SDS011;16337;59.536;13.468;2023-06-22T12:00:43;0.22;;;0.22;;
29340;SDS011;16337;59.536;13.468;2023-06-22T12:03:10;0.10;;;0.10;;
29340;SDS011;16337;59.536;13.468;2023-06-22T12:05:38;0.65;;;0.55;;
29340;SDS011;16337;59.536;13.468;2023-06-22T12:08:04;0.32;;;0.32;;
29340;SDS011;16337;59.536;13.468;2023-06-22T12:10:30;0.10;;;0.10;;
29340;SDS011;16337;59.536;13.468;2023-06-22T12:12:56;0.28;;;0.20;;
29340;SDS011;16337;59.536;13.468;2023-06-22T12:15:23;0.20;;;0.20;;
29340;SDS011;16337;59.536;13.468;2023-06-22T12:17:49;0.40;;;0.40;;
29340;SDS011;16337;59.536;13.468;2023-06-22T12:20:14;0.20;;;0.20;;
29340;SDS011;16337;59.536;13.468;2023-06-22T12:22:41;0.75;;;0.40;;
29340;SDS011;16337;59.536;13.468;2023-06-22T12:25:10;5.47;;;1.00;;
29340;SDS011;16337;59.536;13.468;2023-06-22T12:27:36;0.32;;;0.17;;
29340;SDS011;16337;59.536;13.468;2023-06-22T12:30:02;0.20;;;0.20;;
29340;SDS011;16337;59.536;13.468;2023-06-22T12:32:29;0.10;;;0.10;;
29340;SDS011;16337;59.536;13.468;2023-06-22T12:34:55;0.22;;;0.22;;
29340;SDS011;16337;59.536;13.468;2023-06-22T12:37:21;0.25;;;0.20;;
29340;SDS011;16337;59.536;13.468;2023-06-22T12:39:47;0.30;;;0.30;;
29340;SDS011;16337;59.536;13.468;2023-06-22T12:42:12;0.10;;;0.10;;
29340;SDS011;16337;59.536;13.468;2023-06-22T12:44:38;0.10;;;0.10;;
29340;SDS011;16337;59.536;13.468;2023-06-22T12:47:05;0.55;;;0.40;;
29340;SDS011;16337;59.536;13.468;2023-06-22T12:49:31;0.57;;;0.35;;
29340;SDS011;16337;59.536;13.468;2023-06-22T12:51:57;0.10;;;0.10;;
29340;SDS011;16337;59.536;13.468;2023-06-22T12:54:23;0.25;;;0.20;;
29340;SDS011;16337;59.536;13.468;2023-06-22T12:56:50;0.25;;;0.25;;
29340;SDS011;16337;59.536;13.468;2023-06-22T12:59:15;0.30;;;0.30;;
29340;SDS011;16337;59.536;13.468;2023-06-22T13:01:42;0.15;;;0.15;;
29340;SDS011;16337;59.536;13.468;2023-06-22T13:04:10;0.10;;;0.10;;
29340;SDS011;16337;59.536;13.468;2023-06-22T13:06:43;0.13;;;0.13;;
29340;SDS011;16337;59.536;13.468;2023-06-22T13:09:13;0.10;;;0.10;;
29340;SDS011;16337;59.536;13.468;2023-06-22T13:11:39;0.35;;;0.35;;
29340;SDS011;16337;59.536;13.468;2023-06-22T13:14:05;0.10;;;0.10;;
29340;SDS011;16337;59.536;13.468;2023-06-22T13:16:31;0.77;;;0.25;;
29340;SDS011;16337;59.536;13.468;2023-06-22T13:18:57;0.20;;;0.20;;
29340;SDS011;16337;59.536;13.468;2023-06-22T13:21:23;0.30;;;0.30;;
29340;SDS011;16337;59.536;13.468;2023-06-22T13:23:48;0.32;;;0.22;;
29340;SDS011;16337;59.536;13.468;2023-06-22T13:26:14;0.43;;;0.40;;
29340;SDS011;16337;59.536;13.468;2023-06-22T13:28:40;0.20;;;0.20;;
29340;SDS011;16337;59.536;13.468;2023-06-22T13:31:05;0.10;;;0.10;;
29340;SDS011;16337;59.536;13.468;2023-06-22T13:33:31;0.30;;;0.30;;
29340;SDS011;16337;59.536;13.468;2023-06-22T13:35:57;0.00;;;0.00;;
29340;SDS011;16337;59.536;13.468;2023-06-22T13:38:23;0.75;;;0.38;;
29340;SDS011;16337;59.536;13.468;2023-06-22T13:40:49;0.17;;;0.17;;
29340;SDS011;16337;59.536;13.468;2023-06-22T13:43:15;0.10;;;0.10;;
29340;SDS011;16337;59.536;13.468;2023-06-22T13:45:42;0.10;;;0.10;;
29340;SDS011;16337;59.536;13.468;2023-06-22T13:48:08;0.52;;;0.30;;
29340;SDS011;16337;59.536;13.468;2023-06-22T13:50:34;0.32;;;0.30;;
29340;SDS011;16337;59.536;13.468;2023-06-22T13:53:00;0.17;;;0.17;;
29340;SDS011;16337;59.536;13.468;2023-06-22T13:55:28;0.10;;;0.10;;
29340;SDS011;16337;59.536;13.468;2023-06-22T13:57:55;0.10;;;0.10;;
29340;SDS011;16337;59.536;13.468;2023-06-22T14:00:21;0.10;;;0.10;;
29340;SDS011;16337;59.536;13.468;2023-06-22T14:02:50;0.20;;;0.20;;
29340;SDS011;16337;59.536;13.468;2023-06-22T14:05:16;0.22;;;0.10;;
29340;SDS011;16337;59.536;13.468;2023-06-22T14:07:42;0.17;;;0.17;;
29340;SDS011;16337;59.536;13.468;2023-06-22T14:10:10;0.05;;;0.05;;
29340;SDS011;16337;59.536;13.468;2023-06-22T14:12:39;0.47;;;0.20;;
29340;SDS011;16337;59.536;13.468;2023-06-22T14:15:05;0.17;;;0.17;;
29340;SDS011;16337;59.536;13.468;2023-06-22T14:17:31;0.17;;;0.17;;
29340;SDS011;16337;59.536;13.468;2023-06-22T14:19:56;0.10;;;0.10;;
29340;SDS011;16337;59.536;13.468;2023-06-22T14:22:22;0.10;;;0.10;;
29340;SDS011;16337;59.536;13.468;2023-06-22T14:24:48;0.08;;;0.08;;
29340;SDS011;16337;59.536;13.468;2023-06-22T14:27:17;0.10;;;0.10;;
29340;SDS011;16337;59.536;13.468;2023-06-22T14:29:43;0.40;;;0.38;;
29340;SDS011;16337;59.536;13.468;2023-06-22T14:32:08;0.10;;;0.10;;
29340;SDS011;16337;59.536;13.468;2023-06-22T14:34:34;0.10;;;0.10;;
29340;SDS011;16337;59.536;13.468;2023-06-22T14:37:04;0.20;;;0.20;;
29340;SDS011;16337;59.536;13.468;2023-06-22T14:39:34;0.43;;;0.13;;
29340;SDS011;16337;59.536;13.468;2023-06-22T14:42:00;0.10;;;0.10;;
29340;SDS011;16337;59.536;13.468;2023-06-22T14:44:26;0.10;;;0.10;;